createdAt,value
2023-02-24T00:02:15.401Z,-0.92
2023-02-24T00:04:45.540Z,-0.91
2023-02-24T00:07:13.706Z,-0.88
2023-02-24T00:09:42.742Z,-0.87
2023-02-24T00:12:13.200Z,-0.86
2023-02-24T00:14:43.606Z,-0.86
2023-02-24T00:17:14.658Z,-0.86
2023-02-24T00:19:42.935Z,-0.85
2023-02-24T00:22:12.830Z,-0.84
2023-02-24T00:24:42.190Z,-0.85
2023-02-24T00:27:12.705Z,-0.85
2023-02-24T00:29:45.602Z,-0.85
2023-02-24T00:32:15.067Z,-0.85
2023-02-24T00:34:44.741Z,-0.85
2023-02-24T00:37:15.688Z,-0.85
2023-02-24T00:39:48.054Z,-0.85
2023-02-24T00:42:16.938Z,-0.85
2023-02-24T00:44:46.426Z,-0.85
2023-02-24T00:47:16.893Z,-0.84
2023-02-24T00:49:46.315Z,-0.84
2023-02-24T00:52:17.006Z,-0.85
2023-02-24T00:54:48.557Z,-0.85
2023-02-24T00:57:18.538Z,-0.84
2023-02-24T00:59:51.861Z,-0.84
2023-02-24T01:02:21.527Z,-0.83
2023-02-24T01:04:51.703Z,-0.82
2023-02-24T01:07:19.970Z,-0.82
2023-02-24T01:09:50.084Z,-0.82
2023-02-24T01:12:49.734Z,-0.75
2023-02-24T01:15:18.409Z,-0.61
2023-02-24T01:17:48.010Z,-0.50
2023-02-24T01:20:18.458Z,-0.40
2023-02-24T01:22:49.210Z,-0.29
2023-02-24T01:25:20.422Z,-0.22
2023-02-24T01:27:49.383Z,-0.20
2023-02-24T01:30:18.612Z,-0.20
2023-02-24T01:32:47.941Z,-0.21
2023-02-24T01:35:23.442Z,-0.24
2023-02-24T01:37:53.495Z,-0.27
2023-02-24T01:40:22.073Z,-0.31
2023-02-24T01:42:52.387Z,-0.36
2023-02-24T01:45:23.048Z,-0.40
2023-02-24T01:47:53.341Z,-0.42
2023-02-24T01:50:22.533Z,-0.43
2023-02-24T01:53:00.631Z,-0.44
2023-02-24T01:55:34.565Z,-0.44
2023-02-24T01:58:06.094Z,-0.43
2023-02-24T02:00:38.401Z,-0.45
2023-02-24T02:03:13.524Z,-0.46
2023-02-24T02:05:42.126Z,-0.46
2023-02-24T02:08:10.439Z,-0.47
2023-02-24T02:10:41.179Z,-0.47
2023-02-24T02:13:14.737Z,-0.47
2023-02-24T02:15:57.696Z,-0.48
2023-02-24T02:18:38.462Z,-0.47
2023-02-24T02:21:28.659Z,-0.47
2023-02-24T02:23:58.601Z,-0.46
2023-02-24T02:26:58.403Z,-0.47
2023-02-24T02:29:45.636Z,-0.46
2023-02-24T02:32:38.429Z,-0.46
2023-02-24T02:35:19.273Z,-0.46
2023-02-24T02:37:51.232Z,-0.45
2023-02-24T02:40:21.784Z,-0.42
2023-02-24T02:43:01.196Z,-0.41
2023-02-24T02:45:47.863Z,-0.39
2023-02-24T02:48:21.740Z,-0.30
2023-02-24T02:50:52.952Z,-0.14
2023-02-24T02:53:58.857Z,-0.02
2023-02-24T02:56:43.455Z,0.06
2023-02-24T02:59:12.872Z,0.08
2023-02-24T03:01:44.018Z,0.09
2023-02-24T03:04:13.216Z,0.10
2023-02-24T03:06:43.944Z,0.10
2023-02-24T03:09:21.442Z,0.11
2023-02-24T03:12:02.351Z,0.13
2023-02-24T03:14:37.683Z,0.13
2023-02-24T03:17:12.913Z,0.13
2023-02-24T03:19:44.020Z,0.12
2023-02-24T03:22:22.143Z,0.10
2023-02-24T03:24:50.325Z,0.10
2023-02-24T03:27:32.316Z,0.10
2023-02-24T03:30:09.746Z,0.09
2023-02-24T03:32:55.973Z,0.07
2023-02-24T03:35:27.553Z,0.05
2023-02-24T03:37:57.994Z,0.04
2023-02-24T03:40:30.335Z,0.04
2023-02-24T03:43:09.063Z,0.04
2023-02-24T03:45:38.647Z,0.05
2023-02-24T03:48:08.098Z,0.07
2023-02-24T03:50:38.277Z,0.08
2023-02-24T03:53:38.563Z,0.09
2023-02-24T03:56:17.966Z,0.13
2023-02-24T03:58:54.450Z,0.15
2023-02-24T04:01:29.483Z,0.16
2023-02-24T04:04:10.089Z,0.17
2023-02-24T04:07:16.011Z,0.17
2023-02-24T04:09:59.446Z,0.20
2023-02-24T04:12:47.002Z,0.23
2023-02-24T04:15:43.959Z,0.26
2023-02-24T04:18:17.763Z,0.27
2023-02-24T04:20:51.274Z,0.29
2023-02-24T04:23:23.712Z,0.29
2023-02-24T04:25:55.744Z,0.29
2023-02-24T04:28:24.966Z,0.29
2023-02-24T04:30:57.510Z,0.30
2023-02-24T04:33:26.021Z,0.31
2023-02-24T04:35:54.951Z,0.32
2023-02-24T04:38:23.861Z,0.32
2023-02-24T04:40:53.219Z,0.33
2023-02-24T04:43:21.797Z,0.34
2023-02-24T04:45:51.803Z,0.37
2023-02-24T04:48:20.503Z,0.39
2023-02-24T04:50:55.486Z,0.40
2023-02-24T04:53:27.274Z,0.41
2023-02-24T04:55:57.514Z,0.40
2023-02-24T04:58:29.500Z,0.41
2023-02-24T05:00:58.007Z,0.42
2023-02-24T05:03:28.486Z,0.42
2023-02-24T05:06:00.354Z,0.43
2023-02-24T05:08:30.699Z,0.43
2023-02-24T05:11:01.159Z,0.46
2023-02-24T05:13:31.886Z,0.47
2023-02-24T05:16:04.592Z,0.50
2023-02-24T05:18:37.435Z,0.51
2023-02-24T05:21:26.776Z,0.52
2023-02-24T05:23:55.156Z,0.54
2023-02-24T05:26:42.969Z,0.56
2023-02-24T05:29:14.875Z,0.57
2023-02-24T05:31:43.899Z,0.60
2023-02-24T05:34:16.189Z,0.62
2023-02-24T05:36:46.082Z,0.63
2023-02-24T05:39:19.503Z,0.64
2023-02-24T05:41:48.941Z,0.66
2023-02-24T05:44:23.549Z,0.69
2023-02-24T05:46:56.862Z,0.72
2023-02-24T05:49:33.147Z,0.75
2023-02-24T05:52:07.534Z,0.83
2023-02-24T05:54:41.375Z,0.96
2023-02-24T05:57:15.557Z,1.08
2023-02-24T05:59:44.820Z,1.14
2023-02-24T06:02:16.749Z,1.17
2023-02-24T06:04:51.313Z,1.21
2023-02-24T06:07:21.157Z,1.22
2023-02-24T06:09:57.879Z,1.22
2023-02-24T06:12:34.294Z,1.22
2023-02-24T06:15:08.044Z,1.22
2023-02-24T06:17:39.572Z,1.22
2023-02-24T06:20:14.967Z,1.22
2023-02-24T06:22:43.489Z,1.21
2023-02-24T06:25:15.856Z,1.22
2023-02-24T06:27:44.144Z,1.23
2023-02-24T06:30:13.435Z,1.23
2023-02-24T06:32:45.019Z,1.25
2023-02-24T06:35:13.386Z,1.25
2023-02-24T06:37:41.978Z,1.27
2023-02-24T06:40:20.407Z,1.29
2023-02-24T06:42:50.195Z,1.32
2023-02-24T06:45:18.884Z,1.34
2023-02-24T06:47:49.049Z,1.35
2023-02-24T06:50:23.439Z,1.37
2023-02-24T06:52:55.440Z,1.40
2023-02-24T06:55:27.647Z,1.53
2023-02-24T06:57:59.554Z,1.67
2023-02-24T07:00:37.349Z,1.75
2023-02-24T07:03:16.613Z,1.79
2023-02-24T07:05:50.760Z,1.81
2023-02-24T07:08:23.195Z,1.79
2023-02-24T07:10:53.896Z,1.79
2023-02-24T07:13:24.574Z,1.80
2023-02-24T07:16:06.919Z,1.82
2023-02-24T07:18:37.247Z,1.84
2023-02-24T07:21:05.709Z,1.84
2023-02-24T07:23:34.071Z,1.85
2023-02-24T07:26:04.619Z,1.86
2023-02-24T07:28:34.662Z,1.90
2023-02-24T07:31:08.655Z,1.95
2023-02-24T07:34:49.320Z,1.86
2023-02-24T07:37:19.953Z,2.07
2023-02-24T07:39:48.510Z,2.11
2023-02-24T07:42:17.028Z,2.14
2023-02-24T07:44:46.886Z,2.15
2023-02-24T07:47:18.179Z,2.17
2023-02-24T07:49:46.862Z,2.22
2023-02-24T07:52:16.249Z,2.27
2023-02-24T07:54:45.772Z,2.28
2023-02-24T07:57:14.639Z,2.29
2023-02-24T07:59:45.843Z,2.32
2023-02-24T08:02:15.988Z,2.34
2023-02-24T08:04:51.688Z,2.37
2023-02-24T08:07:25.578Z,2.42
2023-02-24T08:10:14.772Z,2.47
2023-02-24T08:18:51.143Z,2.85
2023-02-24T08:21:19.984Z,3.02
2023-02-24T08:23:48.371Z,3.06
2023-02-24T08:26:16.657Z,3.08
2023-02-24T08:28:45.067Z,3.09
2023-02-24T08:31:13.629Z,3.10
2023-02-24T08:33:41.841Z,3.09
2023-02-24T08:36:10.672Z,3.09
2023-02-24T08:38:42.390Z,3.05
2023-02-24T08:41:18.099Z,3.02
2023-02-24T08:43:48.069Z,3.03
2023-02-24T08:46:26.694Z,3.05
2023-02-24T08:49:01.152Z,3.08
2023-02-24T08:51:34.844Z,3.10
2023-02-24T08:54:15.367Z,3.11
2023-02-24T08:56:49.274Z,3.11
2023-02-24T08:59:36.967Z,3.15
2023-02-24T09:02:18.937Z,3.25
2023-02-24T09:04:59.594Z,3.34
2023-02-24T09:07:40.780Z,3.37
2023-02-24T09:10:18.544Z,3.37
2023-02-24T09:12:49.417Z,3.37
2023-02-24T09:15:20.746Z,3.34
2023-02-24T09:18:07.446Z,3.34
2023-02-24T09:20:54.342Z,3.35
2023-02-24T09:23:30.058Z,3.36
2023-02-24T09:25:58.597Z,3.36
2023-02-24T09:28:27.153Z,3.37
2023-02-24T09:31:01.506Z,3.36
2023-02-24T09:33:39.592Z,3.33
2023-02-24T09:36:13.254Z,3.30
2023-02-24T09:39:00.545Z,3.31
2023-02-24T09:41:34.038Z,3.34
2023-02-24T09:44:18.595Z,3.38
2023-02-24T09:46:54.267Z,3.39
2023-02-24T09:49:56.427Z,3.40
2023-02-24T09:52:42.578Z,3.40
2023-02-24T09:55:25.382Z,3.40
2023-02-24T09:58:29.333Z,3.48
2023-02-24T10:01:36.997Z,3.62
2023-02-24T10:04:21.421Z,3.67
2023-02-24T10:07:26.283Z,3.70
2023-02-24T10:10:11.357Z,3.68
2023-02-24T10:12:40.511Z,3.66
2023-02-24T10:15:21.161Z,3.65
2023-02-24T10:17:55.627Z,3.65
2023-02-24T10:20:39.658Z,3.63
2023-02-24T10:23:29.811Z,3.64
2023-02-24T10:26:32.011Z,3.64
2023-02-24T10:29:43.575Z,3.64
2023-02-24T10:32:24.237Z,3.64
2023-02-24T10:34:53.527Z,3.63
2023-02-24T10:37:28.655Z,3.62
2023-02-24T10:39:59.218Z,3.62
2023-02-24T10:42:31.879Z,3.70
2023-02-24T10:45:23.923Z,3.81
2023-02-24T10:47:59.418Z,3.86
2023-02-24T10:50:54.920Z,3.90
2023-02-24T10:53:28.721Z,3.92
2023-02-24T10:56:15.414Z,3.89
2023-02-24T10:58:53.072Z,3.86
2023-02-24T11:01:46.757Z,3.76
2023-02-24T11:04:36.828Z,3.63
2023-02-24T11:07:25.065Z,3.59
2023-02-24T11:10:14.000Z,3.58
2023-02-24T11:13:09.897Z,3.59
2023-02-24T11:16:08.392Z,3.60
2023-02-24T15:34:41.751Z,5.78
2023-02-24T15:37:30.524Z,5.99
2023-02-24T15:40:07.859Z,5.87
2023-02-24T15:42:36.790Z,5.75
2023-02-24T15:45:07.775Z,5.65
2023-02-24T15:47:44.434Z,5.62
2023-02-24T16:02:35.969Z,5.89
2023-02-24T16:16:36.359Z,6.20
2023-02-24T16:19:04.661Z,6.32
2023-02-24T16:21:33.906Z,6.20
2023-02-24T16:24:02.390Z,6.05
2023-02-24T16:26:30.971Z,5.90
2023-02-24T16:28:59.761Z,5.79
2023-02-24T16:31:28.087Z,5.70
2023-02-24T16:33:57.687Z,5.61
2023-02-24T16:36:26.319Z,5.54
2023-02-24T16:38:55.017Z,5.53
2023-02-24T16:41:24.013Z,5.55
2023-02-24T16:43:52.295Z,5.52
2023-02-24T16:46:22.830Z,5.46
2023-02-24T16:48:53.487Z,5.41
2023-02-24T16:51:22.135Z,5.39
2023-02-24T16:53:50.178Z,5.36
2023-02-24T16:56:19.656Z,5.31
2023-02-24T16:58:48.096Z,5.24
2023-02-24T17:01:20.262Z,5.16
2023-02-24T17:03:52.429Z,5.09
2023-02-24T17:06:22.412Z,5.04
2023-02-24T17:08:52.242Z,5.00
2023-02-24T17:11:21.568Z,5.02
2023-02-24T17:13:49.953Z,5.07
2023-02-24T17:16:19.217Z,5.14
2023-02-24T17:18:50.009Z,5.18
2023-02-24T17:21:18.672Z,5.18
2023-02-24T17:23:48.182Z,5.17
2023-02-24T17:26:16.757Z,5.17
2023-02-24T17:28:45.444Z,5.15
2023-02-24T17:31:14.114Z,5.14
2023-02-24T17:33:42.610Z,5.11
2023-02-24T17:36:11.605Z,5.06
2023-02-24T17:38:39.881Z,5.03
2023-02-24T17:41:08.710Z,5.00
2023-02-24T17:43:37.353Z,4.95
2023-02-24T17:46:07.494Z,4.92
2023-02-24T17:48:36.628Z,4.96
2023-02-24T17:51:15.707Z,5.03
2023-02-24T17:53:44.396Z,5.06
2023-02-24T17:56:12.663Z,5.06
2023-02-24T17:58:41.018Z,5.06
2023-02-24T18:01:09.354Z,5.03
2023-02-24T18:03:38.735Z,5.02
2023-02-24T18:06:09.173Z,5.00
2023-02-24T18:08:39.281Z,4.97
2023-02-24T18:11:08.281Z,4.95
2023-02-24T18:13:39.816Z,4.99
2023-02-24T18:16:10.400Z,5.08
2023-02-24T18:18:38.772Z,5.11
2023-02-24T18:21:08.883Z,5.10
2023-02-24T18:23:40.450Z,5.10
2023-02-24T18:26:11.438Z,5.09
2023-02-24T18:28:39.586Z,5.08
2023-02-24T18:31:12.819Z,5.06
2023-02-24T18:33:41.380Z,5.02
2023-02-24T18:36:10.493Z,4.99
2023-02-24T18:38:39.198Z,5.03
2023-02-24T18:41:09.099Z,5.09
2023-02-24T18:43:38.088Z,5.11
2023-02-24T18:46:08.703Z,5.09
2023-02-24T18:48:37.715Z,5.07
2023-02-24T18:51:05.991Z,5.04
2023-02-24T18:53:37.056Z,5.01
2023-02-24T18:56:07.518Z,4.98
2023-02-24T18:58:37.195Z,5.03
2023-02-24T19:01:17.329Z,5.11
2023-02-24T19:03:46.218Z,5.15
2023-02-24T19:06:14.596Z,5.15
2023-02-24T19:08:42.980Z,5.15
2023-02-24T19:11:16.157Z,5.12
2023-02-24T19:13:44.750Z,5.10
2023-02-24T19:16:12.866Z,5.07
2023-02-24T19:18:41.508Z,5.10
2023-02-24T19:21:10.500Z,5.17
2023-02-24T19:23:42.979Z,5.22
2023-02-24T19:26:21.752Z,5.23
2023-02-24T19:28:50.237Z,5.20
2023-02-24T19:31:20.849Z,5.18
2023-02-24T19:33:55.949Z,5.17
2023-02-24T19:36:24.460Z,5.15
2023-02-24T19:38:53.371Z,5.12
2023-02-24T19:41:21.425Z,5.10
2023-02-24T19:43:53.361Z,5.13
2023-02-24T19:46:22.250Z,5.18
2023-02-24T19:48:51.180Z,5.22
2023-02-24T19:51:21.307Z,5.23
2023-02-24T19:53:53.225Z,5.22
2023-02-24T19:56:32.762Z,5.19
2023-02-24T19:59:01.340Z,5.17
2023-02-24T20:01:32.039Z,5.13
2023-02-24T20:04:01.718Z,5.09
2023-02-24T20:06:35.892Z,5.10
2023-02-24T20:09:11.604Z,5.15
2023-02-24T20:11:39.842Z,5.18
2023-02-24T20:14:09.962Z,5.18
2023-02-24T20:16:41.268Z,5.16
2023-02-24T20:19:12.207Z,5.15
2023-02-24T20:21:41.965Z,5.13
2023-02-24T20:24:13.827Z,5.15
2023-02-24T20:26:46.442Z,5.19
2023-02-24T20:29:15.796Z,5.21
2023-02-24T20:31:46.597Z,5.21
2023-02-24T20:34:16.830Z,5.19
2023-02-24T20:36:46.356Z,5.17
2023-02-24T20:39:14.838Z,5.15
2023-02-24T20:41:43.319Z,5.19
2023-02-24T20:44:11.501Z,5.27
2023-02-24T20:46:39.771Z,5.30
2023-02-24T20:49:09.484Z,5.30
2023-02-24T20:51:37.786Z,5.30
2023-02-24T20:54:06.164Z,5.29
2023-02-24T20:56:36.746Z,5.27
2023-02-24T20:59:13.449Z,5.25
2023-02-24T21:01:41.693Z,5.20
2023-02-24T21:04:11.332Z,5.24
2023-02-24T21:06:40.019Z,5.30
2023-02-24T21:09:12.493Z,5.35
2023-02-24T21:11:42.507Z,5.37
2023-02-24T21:14:15.725Z,5.36
2023-02-24T21:16:46.424Z,5.34
2023-02-24T21:19:15.062Z,5.31
2023-02-24T21:21:43.719Z,5.27
2023-02-24T21:24:13.011Z,5.27
2023-02-24T21:26:42.514Z,5.30
2023-02-24T21:29:12.302Z,5.30
2023-02-24T21:31:42.476Z,5.27
2023-02-24T21:34:12.241Z,5.23
2023-02-24T21:36:40.744Z,5.19
2023-02-24T21:39:14.653Z,5.14
2023-02-24T21:41:43.029Z,5.16
2023-02-24T21:44:12.281Z,5.25
2023-02-24T21:46:41.690Z,5.27
2023-02-24T21:49:14.547Z,5.22
2023-02-24T21:51:46.027Z,5.18
2023-02-24T21:54:14.445Z,5.16
2023-02-24T21:56:42.988Z,5.20
2023-02-24T21:59:11.510Z,5.23
2023-02-24T22:01:42.083Z,5.27
2023-02-24T22:04:15.647Z,5.27
2023-02-24T22:06:44.843Z,5.21
2023-02-24T22:09:15.578Z,5.17
2023-02-24T22:11:49.441Z,5.11
2023-02-24T22:14:19.100Z,5.18
2023-02-24T22:16:47.692Z,5.26
2023-02-24T22:19:20.215Z,5.32
2023-02-24T22:21:48.425Z,5.34
2023-02-24T22:24:17.419Z,5.33
2023-02-24T22:26:45.593Z,5.32
2023-02-24T22:29:13.775Z,5.28
2023-02-24T22:31:44.058Z,5.25
2023-02-24T22:34:14.527Z,5.29
2023-02-24T22:36:42.851Z,5.34
2023-02-24T22:39:11.384Z,5.36
2023-02-24T22:41:39.559Z,5.35
2023-02-24T22:44:08.178Z,5.33
2023-02-24T22:46:37.599Z,5.32
2023-02-24T22:49:06.846Z,5.36
2023-02-24T22:51:35.264Z,5.44
2023-02-24T22:54:04.013Z,5.48
2023-02-24T22:56:33.323Z,5.48
2023-02-24T22:59:01.529Z,5.47
2023-02-24T23:01:31.678Z,5.45
2023-02-24T23:04:01.472Z,5.43
2023-02-24T23:06:30.482Z,5.44
2023-02-24T23:09:00.170Z,5.49
2023-02-24T23:11:32.209Z,5.49
2023-02-24T23:14:02.007Z,5.45
2023-02-24T23:16:31.925Z,5.40
2023-02-24T23:19:04.491Z,5.38
2023-02-24T23:21:38.216Z,5.42
2023-02-24T23:24:11.116Z,5.46
2023-02-24T23:26:45.510Z,5.50
2023-02-24T23:29:15.420Z,5.49
2023-02-24T23:31:43.912Z,5.42
2023-02-24T23:34:12.291Z,5.39
2023-02-24T23:36:43.879Z,5.35
2023-02-24T23:39:23.090Z,5.33
2023-02-24T23:41:57.580Z,5.39
2023-02-24T23:44:26.591Z,5.45
2023-02-24T23:46:55.084Z,5.50
2023-02-24T23:49:24.208Z,5.52
2023-02-24T23:51:53.780Z,5.51
2023-02-24T23:54:22.131Z,5.50
2023-02-24T23:56:50.945Z,5.48
2023-02-24T23:59:21.597Z,5.45
